Time;durP1;ratioP1;P1;durP2;ratioP2;P2;SDS_P1;SDS_P2;PMS_P1;PMS_P2;Temp;Humidity;BMP_temperature;BMP_pressure;BME280_temperature;BME280_humidity;BME280_pressure;Samples;Min_cycle;Max_cycle;Signal;HPM_P1;HPM_P2
2021/06/26 00:02:15;;;;;;;21.93;20.43;;;17.40;99.90;;;;;;4994079;28;20454;-67
2021/06/26 00:04:42;;;;;;;24.43;22.73;;;17.40;99.90;;;;;;4993988;28;20465;-67
2021/06/26 00:07:09;;;;;;;23.10;21.33;;;17.40;99.90;;;;;;4993917;28;20542;-67
2021/06/26 00:09:37;;;;;;;21.60;20.10;;;17.40;99.90;;;;;;4993750;28;20457;-69
2021/06/26 00:12:05;;;;;;;24.40;22.77;;;17.50;99.90;;;;;;4994123;28;20494;-67
2021/06/26 00:14:31;;;;;;;21.60;20.20;;;17.50;99.90;;;;;;4994249;28;20454;-67
2021/06/26 00:16:58;;;;;;;23.83;22.10;;;17.50;99.90;;;;;;4993775;28;20819;-67
2021/06/26 00:19:25;;;;;;;24.37;22.67;;;17.40;99.90;;;;;;4993667;28;20450;-67
2021/06/26 00:21:51;;;;;;;23.80;22.10;;;17.50;99.90;;;;;;4993581;28;20991;-67
2021/06/26 00:24:18;;;;;;;25.90;23.97;;;17.40;99.90;;;;;;4994004;28;20455;-67
2021/06/26 00:26:46;;;;;;;24.53;22.57;;;17.40;99.90;;;;;;4993661;28;20458;-67
2021/06/26 00:29:13;;;;;;;23.73;22.07;;;17.40;99.90;;;;;;4993519;28;20466;-67
2021/06/26 00:31:40;;;;;;;23.40;21.77;;;17.50;99.90;;;;;;4993683;28;20886;-67
2021/06/26 00:34:06;;;;;;;24.60;22.80;;;17.50;99.90;;;;;;4993316;28;20461;-67
2021/06/26 00:36:33;;;;;;;24.43;22.73;;;17.60;99.90;;;;;;4993694;28;20446;-67
2021/06/26 00:39:00;;;;;;;26.07;24.17;;;17.60;99.90;;;;;;4993571;28;20465;-67
2021/06/26 00:41:26;;;;;;;25.13;23.43;;;17.60;99.90;;;;;;4992940;28;20454;-67
2021/06/26 00:43:54;;;;;;;25.90;24.00;;;17.60;99.90;;;;;;4993284;28;20819;-68
2021/06/26 00:46:21;;;;;;;24.67;22.77;;;17.60;99.90;;;;;;4993260;28;20450;-67
2021/06/26 00:48:48;;;;;;;25.70;23.53;;;17.60;99.90;;;;;;4993088;28;20486;-67
2021/06/26 00:51:14;;;;;;;27.97;25.60;;;17.60;99.90;;;;;;5006636;28;20453;-67
2021/06/26 00:53:41;;;;;;;25.77;23.70;;;17.50;99.90;;;;;;5012548;28;20486;-67
2021/06/26 00:56:08;;;;;;;26.77;24.47;;;17.50;99.90;;;;;;5012508;28;20456;-67
2021/06/26 00:58:35;;;;;;;25.53;23.47;;;17.50;99.90;;;;;;5012630;28;20484;-67
2021/06/26 01:01:04;;;;;;;25.03;23.33;;;17.60;99.90;;;;;;5012888;28;20454;-67
2021/06/26 01:03:31;;;;;;;25.57;23.63;;;17.60;99.90;;;;;;5012592;28;20454;-66
2021/06/26 01:05:58;;;;;;;25.13;23.13;;;17.50;99.90;;;;;;5012456;28;20461;-67
2021/06/26 01:08:25;;;;;;;25.30;23.00;;;17.50;99.90;;;;;;5012592;28;20465;-66
2021/06/26 01:10:52;;;;;;;25.13;23.33;;;17.50;99.90;;;;;;5012339;28;20461;-66
2021/06/26 01:13:19;;;;;;;26.07;24.03;;;17.50;99.90;;;;;;5012163;28;20913;-66
2021/06/26 01:15:45;;;;;;;24.57;22.57;;;17.50;99.90;;;;;;5012931;28;20512;-66
2021/06/26 01:18:14;;;;;;;26.07;24.17;;;17.50;99.90;;;;;;5012446;28;20473;-67
2021/06/26 01:20:41;;;;;;;25.80;23.77;;;17.60;99.90;;;;;;5012342;28;20944;-67
2021/06/26 01:23:12;;;;;;;26.97;24.87;;;17.60;99.90;;;;;;5012489;28;20450;-67
2021/06/26 01:25:39;;;;;;;26.37;24.30;;;17.60;99.90;;;;;;5012300;28;20477;-67
2021/06/26 01:28:06;;;;;;;26.20;24.00;;;17.60;99.90;;;;;;5012410;28;20477;-68
2021/06/26 01:30:34;;;;;;;25.60;23.70;;;17.50;99.90;;;;;;5012290;28;20944;-67
2021/06/26 01:33:02;;;;;;;24.90;22.77;;;17.50;99.90;;;;;;5012553;28;20528;-68
2021/06/26 01:35:29;;;;;;;24.00;22.40;;;17.50;99.90;;;;;;5012244;28;20468;-68
2021/06/26 01:37:57;;;;;;;25.10;23.23;;;17.40;99.90;;;;;;5012365;28;20538;-67
2021/06/26 01:40:28;;;;;;;26.93;24.90;;;17.40;99.90;;;;;;5011727;28;21287;-67
2021/06/26 01:42:56;;;;;;;24.40;22.80;;;17.30;99.90;;;;;;5012131;28;20449;-67
2021/06/26 01:45:24;;;;;;;26.07;23.63;;;17.40;99.90;;;;;;5011876;28;20469;-67
2021/06/26 01:47:52;;;;;;;25.37;23.40;;;17.50;99.90;;;;;;5011768;28;20490;-67
2021/06/26 01:50:22;;;;;;;24.60;22.93;;;17.50;99.90;;;;;;5005609;28;20451;-67
2021/06/26 01:52:49;;;;;;;24.73;22.93;;;17.50;99.90;;;;;;4992069;28;20884;-67
2021/06/26 01:55:17;;;;;;;25.47;23.40;;;17.50;99.90;;;;;;4992074;28;20446;-67
2021/06/26 01:57:46;;;;;;;25.13;23.33;;;17.50;99.90;;;;;;4992090;28;20466;-66
2021/06/26 02:00:14;;;;;;;26.60;24.60;;;17.60;99.90;;;;;;4992070;28;20459;-66
2021/06/26 02:02:41;;;;;;;26.60;24.63;;;17.60;99.90;;;;;;4992335;28;20457;-66
2021/06/26 02:05:10;;;;;;;26.67;24.67;;;17.60;99.90;;;;;;4992241;28;20473;-67
2021/06/26 02:07:37;;;;;;;24.87;23.10;;;17.60;99.90;;;;;;4991814;28;20447;-67
2021/06/26 02:10:04;;;;;;;26.30;24.30;;;17.60;99.90;;;;;;4992312;28;20459;-66
2021/06/26 02:12:31;;;;;;;26.50;24.60;;;17.60;99.90;;;;;;4991871;28;20988;-67
2021/06/26 02:14:59;;;;;;;25.13;23.10;;;17.60;99.90;;;;;;4991802;28;20455;-66
2021/06/26 02:17:26;;;;;;;28.03;25.73;;;17.60;99.90;;;;;;4991971;28;20454;-66
2021/06/26 02:19:52;;;;;;;28.70;26.30;;;17.60;99.90;;;;;;4992028;28;20476;-66
2021/06/26 02:22:19;;;;;;;27.90;25.73;;;17.60;99.90;;;;;;4991767;28;20451;-66
2021/06/26 02:24:46;;;;;;;26.17;24.07;;;17.60;99.90;;;;;;4992125;28;20449;-66
2021/06/26 02:27:13;;;;;;;27.37;25.03;;;17.50;99.90;;;;;;4991865;28;20550;-66
2021/06/26 02:29:40;;;;;;;26.27;24.27;;;17.50;99.90;;;;;;4991941;28;20451;-66
2021/06/26 02:32:08;;;;;;;28.60;26.50;;;17.50;99.90;;;;;;4991710;28;20860;-66
2021/06/26 02:34:35;;;;;;;26.97;24.77;;;17.50;99.90;;;;;;4991739;28;20454;-66
2021/06/26 02:37:02;;;;;;;27.20;24.93;;;17.50;99.90;;;;;;4991790;28;20826;-66
2021/06/26 02:39:29;;;;;;;25.87;23.90;;;17.40;99.90;;;;;;4991705;28;20498;-67
2021/06/26 02:41:56;;;;;;;27.07;24.97;;;17.40;99.90;;;;;;4991723;28;20473;-67
2021/06/26 02:44:22;;;;;;;27.80;25.70;;;17.50;99.90;;;;;;4991507;28;20842;-67
2021/06/26 02:46:50;;;;;;;28.00;25.80;;;17.40;99.90;;;;;;4991860;28;20486;-67
2021/06/26 02:49:18;;;;;;;26.80;24.57;;;17.50;99.90;;;;;;4991491;28;20580;-67
2021/06/26 02:51:45;;;;;;;25.70;23.80;;;17.50;99.90;;;;;;5009283;28;20482;-68
2021/06/26 02:54:12;;;;;;;24.77;22.83;;;17.50;99.90;;;;;;5011156;28;20489;-68
2021/06/26 02:56:39;;;;;;;25.80;23.70;;;17.50;99.90;;;;;;5010914;28;20457;-68
2021/06/26 02:59:05;;;;;;;25.50;23.57;;;17.50;99.90;;;;;;5011176;28;20538;-67
2021/06/26 03:01:32;;;;;;;24.83;23.03;;;17.50;99.90;;;;;;5011151;28;20450;-68
2021/06/26 03:03:59;;;;;;;27.47;25.33;;;17.40;99.90;;;;;;5011176;28;20446;-67
2021/06/26 03:06:27;;;;;;;27.30;25.30;;;17.40;99.90;;;;;;5014902;28;20457;-67
2021/06/26 03:08:53;;;;;;;26.50;24.60;;;17.40;99.90;;;;;;5015042;28;21064;-67
2021/06/26 03:11:20;;;;;;;26.53;24.53;;;17.40;99.90;;;;;;5015030;28;20481;-67
2021/06/26 03:13:47;;;;;;;27.43;25.43;;;17.30;99.90;;;;;;5014725;28;20481;-67
2021/06/26 03:16:13;;;;;;;29.23;26.93;;;17.30;99.90;;;;;;5014864;28;20454;-67
2021/06/26 03:18:43;;;;;;;27.90;25.80;;;17.20;99.90;;;;;;5014682;28;20450;-66
2021/06/26 03:21:10;;;;;;;28.60;26.30;;;17.20;99.90;;;;;;5014641;28;20984;-67
2021/06/26 03:23:38;;;;;;;28.00;25.80;;;17.10;99.90;;;;;;5014576;28;20449;-66
2021/06/26 03:26:05;;;;;;;27.13;25.23;;;17.00;99.90;;;;;;5014684;28;20460;-66
2021/06/26 03:28:32;;;;;;;28.47;26.30;;;16.90;99.90;;;;;;5014431;28;20974;-66
2021/06/26 03:30:59;;;;;;;27.10;25.10;;;16.90;99.90;;;;;;5014629;28;20932;-67
2021/06/26 03:33:26;;;;;;;29.00;26.90;;;16.80;99.90;;;;;;5014394;28;20492;-67
2021/06/26 03:35:52;;;;;;;26.47;24.33;;;16.80;99.90;;;;;;5014219;28;20449;-68
2021/06/26 03:38:19;;;;;;;27.60;25.60;;;16.80;99.90;;;;;;5014362;28;20936;-68
2021/06/26 03:40:49;;;;;;;27.87;25.67;;;16.70;99.90;;;;;;5014444;28;20458;-68
2021/06/26 03:43:16;;;;;;;29.53;26.50;;;16.70;99.90;;;;;;5014576;28;20820;-69
2021/06/26 03:45:42;;;;;;;30.30;27.77;;;16.70;99.90;;;;;;5014274;28;20994;-67
2021/06/26 03:48:09;;;;;;;29.00;26.80;;;16.50;99.90;;;;;;5013915;28;20519;-67
2021/06/26 03:50:37;;;;;;;27.70;25.20;;;16.40;99.90;;;;;;5005853;28;20451;-67
2021/06/26 03:53:04;;;;;;;29.37;26.17;;;16.40;99.90;;;;;;4994906;28;20482;-67
2021/06/26 03:55:31;;;;;;;27.40;25.00;;;16.40;99.90;;;;;;4994592;28;20848;-69
2021/06/26 03:57:59;;;;;;;30.87;28.17;;;16.40;99.90;;;;;;4994078;28;20933;-69
2021/06/26 04:00:26;;;;;;;30.47;28.17;;;16.50;99.90;;;;;;4994390;28;21071;-70
2021/06/26 04:02:52;;;;;;;28.77;26.47;;;16.50;99.90;;;;;;4994215;28;20459;-69
2021/06/26 04:05:19;;;;;;;30.13;27.53;;;16.30;99.90;;;;;;4994284;28;20459;-69
2021/06/26 04:07:46;;;;;;;28.87;26.47;;;16.30;99.90;;;;;;4994367;28;20450;-69
2021/06/26 04:10:13;;;;;;;28.80;26.60;;;16.30;99.90;;;;;;4994083;28;20454;-70
2021/06/26 04:12:39;;;;;;;29.80;27.20;;;16.40;99.90;;;;;;4994132;28;20490;-69
2021/06/26 04:15:09;;;;;;;29.37;26.90;;;16.40;99.90;;;;;;4993900;28;20813;-68
2021/06/26 04:17:35;;;;;;;30.33;27.80;;;16.40;99.90;;;;;;4993404;28;20458;-69
2021/06/26 04:20:02;;;;;;;30.73;28.07;;;16.50;99.90;;;;;;4994265;28;20451;-70
2021/06/26 04:22:29;;;;;;;29.27;26.60;;;16.40;99.90;;;;;;4993938;28;20497;-69
2021/06/26 04:24:55;;;;;;;29.83;27.43;;;16.50;99.90;;;;;;4993744;28;20455;-69
2021/06/26 04:27:22;;;;;;;28.67;26.53;;;16.50;99.90;;;;;;4991744;28;20450;-69
2021/06/26 04:29:49;;;;;;;30.03;27.20;;;16.60;99.90;;;;;;4993708;28;20822;-71
2021/06/26 04:32:17;;;;;;;30.27;27.43;;;16.60;99.90;;;;;;4993863;28;20831;-70
